Time;durP1;ratioP1;P1;durP2;ratioP2;P2;SDS_P1;SDS_P2;PMS_P1;PMS_P2;Temp;Humidity;BMP_temperature;BMP_pressure;BME280_temperature;BME280_humidity;BME280_pressure;Samples;Min_cycle;Max_cycle;Signal;HPM_P1;HPM_P2
2024/03/03 00:02:09;;;;;;;23.80;13.50;;;;;;;7.55;100.00;99640.44;6195040;23;20111;-85
2024/03/03 00:04:36;;;;;;;26.27;12.85;;;;;;;7.53;100.00;99629.16;6219089;23;20035;-84
2024/03/03 00:07:04;;;;;;;23.60;14.95;;;;;;;7.53;100.00;99636.97;6243085;23;20047;-84
2024/03/03 00:09:32;;;;;;;24.75;13.73;;;;;;;7.55;100.00;99638.69;6220234;23;20191;-85
2024/03/03 00:11:59;;;;;;;24.40;15.82;;;;;;;7.57;100.00;99638.66;6201221;22;20060;-82
2024/03/03 00:14:26;;;;;;;32.78;17.55;;;;;;;7.58;100.00;99649.03;6256124;22;20019;-84
2024/03/03 00:16:52;;;;;;;30.83;17.27;;;;;;;7.60;100.00;99657.72;6257485;22;20015;-86
2024/03/03 00:19:19;;;;;;;27.83;16.02;;;;;;;7.61;100.00;99651.63;6281495;22;20094;-85
2024/03/03 00:21:46;;;;;;;27.02;15.10;;;;;;;7.62;100.00;99642.06;6255969;22;20015;-83
2024/03/03 00:24:13;;;;;;;28.23;15.75;;;;;;;7.59;100.00;99639.50;6283647;22;20008;-84
2024/03/03 00:26:42;;;;;;;26.63;15.75;;;;;;;7.59;100.00;99631.69;6255105;22;20338;-82
2024/03/03 00:29:10;;;;;;;26.77;15.40;;;;;;;7.53;100.00;99627.41;6255907;22;20030;-84
2024/03/03 00:31:44;;;;;;;25.65;16.00;;;;;;;7.52;100.00;99627.44;6256366;22;20041;-82
2024/03/03 00:34:11;;;;;;;23.85;14.88;;;;;;;7.52;100.00;99622.22;6257773;22;20241;-84
2024/03/03 00:36:41;;;;;;;23.95;14.10;;;;;;;7.49;100.00;99630.94;6284589;22;20046;-85
2024/03/03 00:39:08;;;;;;;28.15;16.48;;;;;;;7.46;100.00;99628.38;6283853;22;20015;-85
2024/03/03 00:41:35;;;;;;;29.70;14.88;;;;;;;7.40;100.00;99625.84;6307804;22;20019;-85
2024/03/03 00:44:01;;;;;;;23.80;14.60;;;;;;;7.39;100.00;99618.91;6258782;22;20019;-83
2024/03/03 00:46:28;;;;;;;28.27;15.27;;;;;;;7.34;100.00;99621.59;6284761;22;20061;-86
2024/03/03 00:48:58;;;;;;;28.00;15.63;;;;;;;7.31;100.00;99623.38;6257579;22;20026;-82
2024/03/03 00:51:25;;;;;;;23.92;14.93;;;;;;;7.28;100.00;99632.06;6283774;22;20027;-83
2024/03/03 00:53:52;;;;;;;28.23;15.38;;;;;;;7.24;100.00;99631.25;6258381;22;20441;-83
2024/03/03 00:56:18;;;;;;;27.95;16.20;;;;;;;7.20;100.00;99623.50;6283513;22;20015;-86
2024/03/03 00:58:45;;;;;;;23.00;14.23;;;;;;;7.19;100.00;99630.44;6257051;22;20022;-86
2024/03/03 01:01:14;;;;;;;26.27;16.83;;;;;;;7.15;100.00;99625.28;6281574;22;20019;-86
2024/03/03 01:03:41;;;;;;;28.60;16.85;;;;;;;7.15;100.00;99622.69;6284711;22;20019;-85
2024/03/03 01:06:08;;;;;;;37.55;17.77;;;;;;;7.14;100.00;99626.16;6283629;22;20050;-85
2024/03/03 01:08:35;;;;;;;30.40;17.40;;;;;;;7.10;100.00;99614.94;6257071;22;20019;-85
2024/03/03 01:11:02;;;;;;;29.13;17.95;;;;;;;7.09;100.00;99621.00;6257725;22;20019;-85
2024/03/03 01:13:28;;;;;;;35.80;18.33;;;;;;;7.08;100.00;99611.50;6258484;22;20102;-83
2024/03/03 01:15:55;;;;;;;32.90;17.35;;;;;;;7.06;100.00;99616.69;6257205;22;20101;-84
2024/03/03 01:18:23;;;;;;;30.83;17.92;;;;;;;7.05;100.00;99620.19;6284197;22;20063;-83
2024/03/03 01:20:49;;;;;;;29.48;16.63;;;;;;;7.02;100.00;99627.16;6283134;22;20160;-84
2024/03/03 01:23:16;;;;;;;32.08;17.48;;;;;;;6.98;100.00;99631.53;6285224;22;20011;-84
2024/03/03 01:25:43;;;;;;;32.03;17.88;;;;;;;6.99;100.00;99637.59;6285086;22;20381;-84
2024/03/03 01:28:10;;;;;;;34.00;18.45;;;;;;;6.95;100.00;99628.97;6260238;22;20015;-85
2024/03/03 01:30:37;;;;;;;32.00;15.82;;;;;;;6.94;100.00;99628.09;6257867;22;20027;-83
2024/03/03 01:33:03;;;;;;;32.25;17.48;;;;;;;6.93;100.00;99622.91;6287087;22;20073;-85
2024/03/03 01:35:33;;;;;;;30.35;18.73;;;;;;;6.91;100.00;99620.34;6286796;22;20012;-83
2024/03/03 01:38:01;;;;;;;30.88;18.23;;;;;;;6.89;100.00;99616.88;6285338;22;20034;-85
2024/03/03 01:40:33;;;;;;;29.02;16.77;;;;;;;6.88;100.00;99612.59;6285140;22;20019;-83
2024/03/03 01:43:05;;;;;;;32.03;18.15;;;;;;;6.86;100.00;99619.53;6285008;22;20348;-84
2024/03/03 01:45:34;;;;;;;31.20;17.08;;;;;;;6.83;100.00;99622.16;6285702;22;20524;-85
2024/03/03 01:48:01;;;;;;;41.17;20.48;;;;;;;6.81;100.00;99623.06;6286991;22;20019;-85
2024/03/03 01:50:30;;;;;;;35.75;18.92;;;;;;;6.81;100.00;99623.06;6284530;22;20166;-84
2024/03/03 01:53:00;;;;;;;38.47;20.33;;;;;;;6.77;100.00;99620.47;6285929;22;20027;-84
2024/03/03 01:55:27;;;;;;;35.13;18.77;;;;;;;6.75;100.00;99613.56;6258318;22;20039;-83
2024/03/03 01:58:02;;;;;;;35.63;18.80;;;;;;;6.73;100.00;99620.53;6254869;22;20031;-85
2024/03/03 02:00:34;;;;;;;33.40;18.33;;;;;;;6.71;100.00;99617.94;6254955;22;20023;-85
2024/03/03 02:03:05;;;;;;;32.85;19.08;;;;;;;6.69;100.00;99614.50;6255412;22;20046;-85
2024/03/03 02:05:35;;;;;;;35.00;18.70;;;;;;;6.66;100.00;99618.84;6255422;22;20022;-84
2024/03/03 02:08:02;;;;;;;34.25;19.40;;;;;;;6.64;100.00;99618.88;6280777;22;20094;-83
2024/03/03 02:10:29;;;;;;;42.47;21.40;;;;;;;6.62;100.00;99618.00;6280729;22;20345;-84
2024/03/03 02:12:55;;;;;;;33.28;18.13;;;;;;;6.60;100.00;99619.78;6255313;22;20102;-83
2024/03/03 02:15:22;;;;;;;37.17;20.17;;;;;;;6.57;100.00;99615.47;6280973;22;20069;-83
2024/03/03 02:17:51;;;;;;;36.92;18.15;;;;;;;6.56;100.00;99625.91;6254463;22;20418;-83
2024/03/03 02:20:17;;;;;;;34.80;18.98;;;;;;;6.53;100.00;99621.59;6254965;22;20019;-85
2024/03/03 02:22:44;;;;;;;36.22;21.05;;;;;;;6.52;100.00;99631.97;6254876;22;20026;-83
2024/03/03 02:25:10;;;;;;;38.90;20.70;;;;;;;6.50;100.00;99626.78;6281121;22;20093;-84
2024/03/03 02:27:38;;;;;;;34.72;19.17;;;;;;;6.43;100.00;99620.78;6281898;22;20019;-84
2024/03/03 02:30:06;;;;;;;37.42;20.85;;;;;;;6.41;100.00;99625.16;6252891;22;20022;-85
2024/03/03 02:32:33;;;;;;;35.20;20.00;;;;;;;6.40;100.00;99619.94;6306306;22;20341;-84
2024/03/03 02:34:59;;;;;;;37.53;20.45;;;;;;;6.37;100.00;99620.84;6280073;22;20070;-85
2024/03/03 02:37:26;;;;;;;31.30;19.85;;;;;;;6.33;100.00;99623.50;6279674;22;20016;-84
2024/03/03 02:39:52;;;;;;;40.92;21.83;;;;;;;6.31;100.00;99626.09;6252175;22;20019;-84
2024/03/03 02:42:22;;;;;;;35.78;21.58;;;;;;;6.26;100.00;99623.53;6252312;22;20029;-83
2024/03/03 02:44:48;;;;;;;38.40;20.25;;;;;;;6.21;100.00;99625.31;6279100;22;20625;-86
2024/03/03 02:47:15;;;;;;;37.50;19.13;;;;;;;6.20;100.00;99628.78;6279025;22;20030;-85
2024/03/03 02:49:41;;;;;;;38.35;19.95;;;;;;;6.16;100.00;99632.28;6254955;22;20027;-84
2024/03/03 02:52:08;;;;;;;40.40;21.42;;;;;;;6.15;100.00;99619.28;6281386;22;20015;-83
2024/03/03 02:54:37;;;;;;;34.20;19.58;;;;;;;6.12;100.00;99615.84;6255377;22;20031;-82
2024/03/03 02:57:04;;;;;;;37.45;20.95;;;;;;;6.11;100.00;99602.84;6253305;22;20062;-83
2024/03/03 02:59:30;;;;;;;40.72;21.15;;;;;;;6.09;100.00;99605.47;6280528;22;20019;-85
2024/03/03 03:01:57;;;;;;;41.67;21.10;;;;;;;6.09;100.00;99600.28;6278307;22;20058;-85
2024/03/03 03:04:24;;;;;;;38.53;21.48;;;;;;;6.07;100.00;99609.81;6255202;22;20522;-84
2024/03/03 03:06:50;;;;;;;37.15;21.02;;;;;;;6.07;100.00;99607.22;6255121;22;20085;-83
2024/03/03 03:09:17;;;;;;;42.03;21.08;;;;;;;6.05;100.00;99616.78;6278908;22;20023;-83
2024/03/03 03:11:43;;;;;;;43.13;22.08;;;;;;;6.03;100.00;99610.72;6254831;22;20229;-84
2024/03/03 03:14:13;;;;;;;45.25;21.20;;;;;;;6.01;100.00;99612.47;6253689;22;20023;-82
2024/03/03 03:16:42;;;;;;;43.03;20.88;;;;;;;6.00;100.00;99618.53;6252971;22;20015;-82
2024/03/03 03:19:11;;;;;;;42.90;20.70;;;;;;;5.99;100.00;99622.00;6278025;22;20073;-83
2024/03/03 03:21:38;;;;;;;36.60;20.48;;;;;;;5.96;100.00;99619.41;6279990;22;20023;-85
2024/03/03 03:24:05;;;;;;;40.53;21.42;;;;;;;5.95;100.00;99625.47;6279809;22;20023;-84
2024/03/03 03:26:31;;;;;;;46.30;25.00;;;;;;;5.96;100.00;99635.84;6254746;22;20019;-85
2024/03/03 03:28:59;;;;;;;43.97;22.33;;;;;;;5.91;100.00;99631.56;6303746;22;20603;-84
2024/03/03 03:31:25;;;;;;;40.22;20.95;;;;;;;5.85;100.00;99640.22;6259249;22;20435;-85
2024/03/03 03:33:52;;;;;;;41.15;20.25;;;;;;;5.83;100.00;99639.41;6254716;22;20109;-86
2024/03/03 03:36:18;;;;;;;42.30;21.92;;;;;;;5.80;100.00;99636.78;6281247;22;20106;-85
2024/03/03 03:38:45;;;;;;;39.20;23.13;;;;;;;5.76;100.00;99645.47;6283312;22;20019;-83
2024/03/03 03:41:12;;;;;;;43.38;21.55;;;;;;;5.76;100.00;99655.88;6280980;22;20023;-84
2024/03/03 03:43:39;;;;;;;42.50;20.92;;;;;;;5.74;100.00;99652.44;6254787;22;20024;-85
2024/03/03 03:46:05;;;;;;;43.25;21.88;;;;;;;5.71;100.00;99640.31;6280574;22;20030;-85
2024/03/03 03:48:32;;;;;;;38.47;21.15;;;;;;;5.71;100.00;99634.25;6308095;22;20031;-84
2024/03/03 03:50:58;;;;;;;42.45;22.63;;;;;;;5.67;100.00;99630.84;6254610;22;20047;-83
2024/03/03 03:53:25;;;;;;;42.88;22.60;;;;;;;5.68;100.00;99634.28;6253457;22;20030;-82
2024/03/03 03:55:51;;;;;;;39.97;21.23;;;;;;;5.65;100.00;99629.13;6307146;22;20048;-84
2024/03/03 03:58:18;;;;;;;43.38;22.95;;;;;;;5.61;100.00;99644.69;6254503;22;20114;-84
2024/03/03 04:00:47;;;;;;;44.63;24.75;;;;;;;5.62;100.00;99640.38;6281013;22;20050;-86
2024/03/03 04:03:14;;;;;;;43.00;22.48;;;;;;;5.61;100.00;99639.50;6255957;22;20023;-84
2024/03/03 04:05:40;;;;;;;46.85;23.75;;;;;;;5.60;100.00;99631.72;6256161;22;20432;-84
2024/03/03 04:08:07;;;;;;;44.08;22.92;;;;;;;5.58;100.00;99630.84;6257221;22;20034;-84
2024/03/03 04:10:49;;;;;;;44.90;22.52;;;;;;;5.58;100.00;99625.66;6260349;22;20337;-83
2024/03/03 04:13:19;;;;;;;49.83;23.65;;;;;;;5.59;100.00;99630.88;6282444;22;20034;-85
2024/03/03 04:15:45;;;;;;;50.10;24.95;;;;;;;5.58;100.00;99626.53;6255516;22;20027;-85
2024/03/03 04:18:12;;;;;;;45.30;23.70;;;;;;;5.59;100.00;99630.88;6307619;22;20023;-84
2024/03/03 04:20:41;;;;;;;46.30;24.42;;;;;;;5.57;100.00;99626.56;6280675;22;20019;-83
2024/03/03 04:23:08;;;;;;;48.72;23.98;;;;;;;5.53;100.00;99628.31;6280713;22;20050;-84
2024/03/03 04:25:34;;;;;;;48.17;24.00;;;;;;;5.53;100.00;99624.81;6282627;22;20003;-83
2024/03/03 04:28:01;;;;;;;49.10;26.42;;;;;;;5.52;100.00;99625.72;6254282;22;20027;-84
2024/03/03 04:30:28;;;;;;;59.67;28.67;;;;;;;5.50;100.00;99617.06;6252028;22;20122;-84
2024/03/03 04:32:54;;;;;;;47.50;24.13;;;;;;;5.47;100.00;99616.22;6280178;22;20658;-85
2024/03/03 04:35:21;;;;;;;42.80;24.88;;;;;;;5.45;100.00;99617.94;6282208;22;20072;-83
2024/03/03 04:37:47;;;;;;;49.53;24.27;;;;;;;5.45;100.00;99617.94;6280021;22;20527;-86
2024/03/03 04:40:14;;;;;;;52.28;25.88;;;;;;;5.44;100.00;99626.59;6255731;22;20016;-84
2024/03/03 04:42:41;;;;;;;52.28;25.92;;;;;;;5.41;100.00;99629.22;6254502;22;20019;-84
2024/03/03 04:45:09;;;;;;;55.00;25.35;;;;;;;5.35;100.00;99620.59;6256532;22;20125;-83
2024/03/03 04:47:35;;;;;;;58.70;25.48;;;;;;;5.34;100.00;99621.47;6255559;22;20027;-85
2024/03/03 04:50:04;;;;;;;48.42;25.77;;;;;;;5.32;100.00;99616.28;6253845;22;20120;-85
2024/03/03 04:52:31;;;;;;;48.85;25.80;;;;;;;5.29;100.00;99618.88;6281056;22;20015;-85
2024/03/03 04:54:57;;;;;;;56.67;26.90;;;;;;;5.29;100.00;99618.88;6281452;22;20011;-84
2024/03/03 04:57:24;;;;;;;51.78;26.08;;;;;;;5.25;100.00;99618.06;6256735;22;20039;-86
2024/03/03 04:59:50;;;;;;;50.28;24.88;;;;;;;5.24;100.00;99618.03;6281188;22;20042;-85
2024/03/03 05:02:20;;;;;;;52.95;25.88;;;;;;;5.21;100.00;99626.69;6254548;22;20023;-85
2024/03/03 05:04:46;;;;;;;52.80;26.92;;;;;;;5.19;100.00;99623.25;6253729;22;20023;-86
2024/03/03 05:07:13;;;;;;;56.08;28.38;;;;;;;5.21;100.00;99633.63;6254998;22;20026;-84
2024/03/03 05:09:42;;;;;;;53.58;26.20;;;;;;;5.20;100.00;99632.78;6281217;22;20039;-84
2024/03/03 05:12:09;;;;;;;49.15;26.42;;;;;;;5.18;100.00;99637.09;6256541;22;20037;-86
2024/03/03 05:14:36;;;;;;;47.25;25.23;;;;;;;5.16;100.00;99635.38;6280839;22;20417;-84
2024/03/03 05:17:02;;;;;;;50.70;23.95;;;;;;;5.13;100.00;99623.28;6280516;22;20510;-83
2024/03/03 05:19:29;;;;;;;56.67;28.80;;;;;;;5.13;100.00;99628.47;6279661;22;20090;-84
2024/03/03 05:21:55;;;;;;;52.22;27.13;;;;;;;5.13;100.00;99623.28;6306429;22;20157;-84
2024/03/03 05:24:23;;;;;;;47.28;27.15;;;;;;;5.12;100.00;99630.19;6279969;22;20045;-86
2024/03/03 05:26:53;;;;;;;52.55;26.00;;;;;;;5.11;100.00;99625.88;6254112;22;20030;-86
2024/03/03 05:29:20;;;;;;;57.50;27.20;;;;;;;5.09;100.00;99629.34;6255508;22;20102;-84
2024/03/03 05:31:46;;;;;;;55.05;25.85;;;;;;;5.08;100.00;99637.97;6254673;22;20030;-84
2024/03/03 05:34:13;;;;;;;56.63;28.67;;;;;;;5.07;100.00;99634.53;6279813;22;20065;-85
2024/03/03 05:36:45;;;;;;;48.90;26.20;;;;;;;5.08;100.00;99630.19;6279989;22;20084;-84
2024/03/03 05:39:13;;;;;;;58.45;26.33;;;;;;;5.10;100.00;99631.06;6280132;22;20524;-85
2024/03/03 05:41:41;;;;;;;47.40;25.38;;;;;;;5.10;100.00;99634.53;6281189;22;20039;-84
2024/03/03 05:44:07;;;;;;;48.95;26.20;;;;;;;5.13;100.00;99628.47;6255320;22;20016;-84
2024/03/03 05:46:38;;;;;;;54.85;28.52;;;;;;;5.11;100.00;99643.16;6255481;22;20022;-84
2024/03/03 05:49:05;;;;;;;53.80;27.10;;;;;;;5.10;100.00;99644.03;6278187;22;20054;-85
2024/03/03 05:51:32;;;;;;;50.78;26.70;;;;;;;5.08;100.00;99644.03;6255551;22;20102;-83
2024/03/03 05:54:01;;;;;;;53.13;26.85;;;;;;;5.10;100.00;99631.06;6255134;22;20023;-83
2024/03/03 05:56:27;;;;;;;57.85;27.88;;;;;;;5.10;100.00;99634.53;6280628;22;20011;-84
2024/03/03 05:58:54;;;;;;;52.97;27.60;;;;;;;5.11;100.00;99625.00;6253515;22;20118;-83
2024/03/03 06:01:21;;;;;;;58.20;27.48;;;;;;;5.13;100.00;99628.47;6255384;22;20422;-84
2024/03/03 06:03:47;;;;;;;55.97;28.00;;;;;;;5.14;100.00;99623.25;6254785;22;20110;-85
2024/03/03 06:06:14;;;;;;;50.13;24.92;;;;;;;5.17;100.00;99640.53;6280387;22;20380;-85
2024/03/03 06:08:45;;;;;;;54.22;27.60;;;;;;;5.17;100.00;99635.34;6282219;22;20072;-83
2024/03/03 06:11:11;;;;;;;57.58;27.60;;;;;;;5.17;100.00;99637.94;6254304;22;20397;-86
2024/03/03 06:13:38;;;;;;;54.90;27.10;;;;;;;5.18;100.00;99639.69;6279853;22;20015;-86
2024/03/03 06:16:05;;;;;;;44.25;24.92;;;;;;;5.19;100.00;99637.94;6254659;22;20079;-85
2024/03/03 06:18:34;;;;;;;54.42;27.35;;;;;;;5.14;100.00;99636.22;6280316;22;20445;-85
2024/03/03 06:21:01;;;;;;;56.42;27.42;;;;;;;5.20;100.00;99634.47;6253969;22;20077;-83
2024/03/03 06:23:27;;;;;;;62.30;27.27;;;;;;;5.21;100.00;99637.06;6280931;22;20023;-85
2024/03/03 06:25:54;;;;;;;53.00;24.65;;;;;;;5.24;100.00;99638.78;6254959;22;20015;-84
2024/03/03 06:28:20;;;;;;;48.22;25.27;;;;;;;5.27;100.00;99650.03;6255654;22;20034;-85
2024/03/03 06:30:47;;;;;;;52.30;26.88;;;;;;;5.28;100.00;99650.91;6280613;22;20110;-84
2024/03/03 06:33:16;;;;;;;52.95;25.98;;;;;;;5.30;100.00;99656.94;6256254;22;20023;-85
2024/03/03 06:35:46;;;;;;;58.15;26.75;;;;;;;5.33;100.00;99651.72;6256608;22;20019;-86
2024/03/03 06:38:13;;;;;;;51.63;26.90;;;;;;;5.36;100.00;99666.44;6255569;22;20021;-84
2024/03/03 06:40:39;;;;;;;48.17;26.48;;;;;;;5.35;100.00;99657.78;6253483;22;20047;-86
2024/03/03 06:43:06;;;;;;;51.90;28.38;;;;;;;5.39;100.00;99658.66;6279683;22;20470;-82
2024/03/03 06:45:33;;;;;;;50.70;27.65;;;;;;;5.41;100.00;99657.78;6280404;22;20026;-85
2024/03/03 06:47:59;;;;;;;49.10;25.90;;;;;;;5.41;100.00;99659.47;6254891;22;20022;-86
2024/03/03 06:50:26;;;;;;;57.20;25.50;;;;;;;5.42;100.00;99649.13;6254349;22;20073;-85
2024/03/03 06:52:55;;;;;;;58.15;29.23;;;;;;;5.35;100.00;99650.00;6280447;22;20093;-83
2024/03/03 06:55:23;;;;;;;56.88;28.10;;;;;;;5.44;100.00;99649.97;6280031;22;20023;-83
2024/03/03 06:57:49;;;;;;;48.75;26.92;;;;;;;5.44;100.00;99660.34;6254592;22;20073;-84
2024/03/03 07:00:18;;;;;;;53.60;26.77;;;;;;;5.51;100.00;99655.13;6264519;22;20050;-83
2024/03/03 07:05:35;;;;;;;53.00;27.88;;;;;;;5.59;100.00;99651.66;6258806;22;20020;-83
2024/03/03 07:08:02;;;;;;;46.05;24.98;;;;;;;5.57;100.00;99649.91;6264115;22;20015;-86
2024/03/03 07:10:32;;;;;;;53.42;26.38;;;;;;;6.67;100.00;99657.84;6258762;22;20019;-84
2024/03/03 07:12:59;;;;;;;46.72;24.45;;;;;;;9.08;100.00;99645.84;6275921;22;19999;-86
2024/03/03 07:15:25;;;;;;;48.85;24.98;;;;;;;10.71;100.00;99644.00;6258863;22;20020;-86
2024/03/03 07:17:52;;;;;;;40.65;22.70;;;;;;;11.45;97.34;99635.91;6256692;22;20081;-84
2024/03/03 07:20:21;;;;;;;41.78;22.05;;;;;;;12.10;90.73;99636.59;6229764;22;20020;-84
2024/03/03 07:22:48;;;;;;;42.90;23.15;;;;;;;12.48;84.00;99638.91;6227548;22;20142;-83
2024/03/03 07:25:20;;;;;;;37.58;21.63;;;;;;;13.01;77.56;99636.22;6209602;22;20020;-84
2024/03/03 07:27:47;;;;;;;36.33;21.23;;;;;;;13.43;77.33;99640.00;6229086;22;20023;-86
2024/03/03 07:30:15;;;;;;;35.72;20.63;;;;;;;14.06;76.20;99628.81;6257747;22;20091;-86
2024/03/03 07:32:42;;;;;;;47.03;23.67;;;;;;;13.80;73.72;99632.47;6228228;22;20019;-84
2024/03/03 07:35:14;;;;;;;42.47;20.70;;;;;;;14.47;71.79;99625.41;6253306;22;20023;-85
2024/03/03 07:37:42;;;;;;;37.88;20.20;;;;;;;14.33;65.74;99624.22;6203830;22;20074;-83
2024/03/03 07:40:09;;;;;;;32.63;20.73;;;;;;;14.79;67.89;99628.50;6256195;22;20015;-85
2024/03/03 07:42:36;;;;;;;37.78;20.88;;;;;;;15.29;67.21;99620.16;6255419;22;20061;-85
2024/03/03 07:45:03;;;;;;;35.85;21.40;;;;;;;15.44;61.57;99621.25;6233045;22;20035;-85
2024/03/03 07:47:30;;;;;;;35.30;20.10;;;;;;;15.42;63.49;99617.81;6232212;22;20016;-84
2024/03/03 07:49:57;;;;;;;32.03;19.55;;;;;;;15.79;61.65;99616.13;6230276;22;20024;-84
2024/03/03 07:52:24;;;;;;;37.05;21.00;;;;;;;16.18;59.82;99616.94;6256482;22;20043;-85
2024/03/03 07:54:52;;;;;;;35.22;21.02;;;;;;;16.23;60.51;99603.50;6227865;22;20035;-85
2024/03/03 07:57:18;;;;;;;34.13;20.98;;;;;;;16.08;56.79;99605.97;6254213;22;20019;-86
2024/03/03 07:59:47;;;;;;;33.53;21.23;;;;;;;14.96;60.12;99599.63;6227199;22;20035;-84
2024/03/03 08:02:16;;;;;;;34.20;20.92;;;;;;;12.49;69.20;99598.59;6231429;22;20026;-86
2024/03/03 08:04:43;;;;;;;33.05;19.98;;;;;;;11.20;76.68;99607.78;6256438;22;20030;-87
2024/03/03 08:07:12;;;;;;;32.13;20.42;;;;;;;10.07;84.58;99613.25;6229323;22;20110;-83
2024/03/03 08:09:39;;;;;;;31.30;19.77;;;;;;;9.67;91.05;99613.31;6230157;22;20097;-85
2024/03/03 08:12:09;;;;;;;37.55;21.75;;;;;;;9.37;94.49;99618.31;6256639;22;20023;-86
2024/03/03 08:14:37;;;;;;;37.58;23.65;;;;;;;8.96;100.00;99625.19;6304395;22;20015;-83
2024/03/03 08:17:03;;;;;;;37.63;21.58;;;;;;;8.86;100.00;99620.16;6260893;22;20114;-84
2024/03/03 08:19:30;;;;;;;35.60;21.73;;;;;;;8.71;100.00;99617.84;6226970;22;20023;-85
2024/03/03 08:21:57;;;;;;;36.70;21.70;;;;;;;8.67;100.00;99617.03;6226701;22;20024;-85
2024/03/03 08:24:24;;;;;;;37.85;22.35;;;;;;;8.72;100.00;99617.81;6279068;22;20047;-85
2024/03/03 08:26:53;;;;;;;39.72;23.00;;;;;;;8.48;100.00;99613.03;6252076;22;20016;-85
2024/03/03 08:29:20;;;;;;;39.10;23.00;;;;;;;8.28;100.00;99622.84;6279642;22;20019;-84
2024/03/03 08:31:46;;;;;;;43.85;23.45;;;;;;;8.15;100.00;99620.47;6277986;22;20019;-85
2024/03/03 08:34:14;;;;;;;40.17;21.95;;;;;;;8.24;100.00;99621.19;6280706;22;20026;-87
2024/03/03 08:36:41;;;;;;;37.80;23.13;;;;;;;8.18;100.00;99616.06;6258613;22;20019;-83
2024/03/03 08:39:10;;;;;;;43.03;23.38;;;;;;;8.28;100.00;99615.03;6227113;22;20031;-84
2024/03/03 08:41:37;;;;;;;46.63;24.23;;;;;;;8.31;100.00;99619.34;6253306;22;20019;-85
2024/03/03 08:44:04;;;;;;;36.80;23.00;;;;;;;8.35;100.00;99620.16;6251645;22;20066;-86
2024/03/03 08:46:30;;;;;;;40.53;24.73;;;;;;;8.43;100.00;99621.75;6230194;22;20079;-85
2024/03/03 08:48:57;;;;;;;44.70;24.38;;;;;;;8.56;100.00;99627.63;6229575;22;20485;-84
2024/03/03 08:51:23;;;;;;;41.35;25.33;;;;;;;8.48;100.00;99629.53;6255773;22;20051;-86
2024/03/03 08:53:52;;;;;;;42.78;22.80;;;;;;;8.60;100.00;99631.06;6254575;22;20039;-86
2024/03/03 08:56:18;;;;;;;48.70;27.10;;;;;;;8.54;100.00;99621.59;6254489;22;20027;-85
2024/03/03 08:58:45;;;;;;;41.45;25.15;;;;;;;8.64;100.00;99624.88;6252514;22;20069;-81
2024/03/03 09:01:14;;;;;;;44.28;24.60;;;;;;;8.86;100.00;99624.50;6278203;22;20054;-87
2024/03/03 09:03:44;;;;;;;41.45;24.23;;;;;;;9.04;100.00;99628.53;6254850;22;20019;-87
2024/03/03 09:06:10;;;;;;;40.00;22.52;;;;;;;9.17;100.00;99629.16;6225961;22;20050;-83
2024/03/03 09:08:38;;;;;;;38.70;22.55;;;;;;;9.23;100.00;99622.06;6252021;22;20112;-85
2024/03/03 09:11:06;;;;;;;45.03;25.40;;;;;;;9.25;100.00;99612.44;6227384;22;20024;-85
2024/03/03 09:13:36;;;;;;;45.13;24.92;;;;;;;9.18;100.00;99623.91;6254136;22;20042;-85
2024/03/03 09:16:03;;;;;;;40.22;24.63;;;;;;;9.36;100.00;99617.44;6226935;22;20023;-85
2024/03/03 09:18:31;;;;;;;38.35;24.98;;;;;;;9.34;100.00;99621.00;6253564;22;20011;-86
2024/03/03 09:20:58;;;;;;;39.90;23.88;;;;;;;9.33;100.00;99612.28;6257895;22;20030;-87
2024/03/03 09:23:25;;;;;;;43.45;24.98;;;;;;;9.36;100.00;99616.56;6228865;22;20007;-84
2024/03/03 09:25:53;;;;;;;50.03;23.85;;;;;;;9.26;100.00;99608.94;6281588;22;20095;-86
2024/03/03 09:28:20;;;;;;;40.15;23.88;;;;;;;9.30;100.00;99614.97;6251890;22;20020;-87
2024/03/03 09:30:46;;;;;;;43.55;26.00;;;;;;;9.34;100.00;99613.16;6253351;22;20023;-85
2024/03/03 09:33:13;;;;;;;43.20;23.85;;;;;;;9.40;100.00;99611.28;6249394;22;20453;-84
2024/03/03 09:35:41;;;;;;;37.78;24.17;;;;;;;9.46;100.00;99599.81;6249427;22;20331;-85
2024/03/03 09:38:07;;;;;;;38.58;23.65;;;;;;;9.45;100.00;99611.16;6248372;22;20016;-85
2024/03/03 09:40:36;;;;;;;39.58;25.17;;;;;;;9.51;100.00;99599.72;6250679;22;20086;-83
2024/03/03 09:43:04;;;;;;;39.55;24.48;;;;;;;9.58;100.00;99598.69;6250716;22;20074;-84
2024/03/03 09:45:32;;;;;;;40.45;26.48;;;;;;;9.76;100.00;99600.91;6223983;22;20028;-86
2024/03/03 09:48:02;;;;;;;44.55;24.35;;;;;;;9.89;100.00;99603.25;6219951;22;20020;-85
2024/03/03 09:50:29;;;;;;;45.05;25.58;;;;;;;9.86;100.00;99598.09;6247081;22;20032;-84
2024/03/03 09:52:56;;;;;;;41.45;25.83;;;;;;;9.87;100.00;99597.22;6219955;22;20090;-82
2024/03/03 09:55:26;;;;;;;43.15;24.25;;;;;;;9.93;100.00;99592.69;6248133;22;20031;-87
2024/03/03 09:57:53;;;;;;;43.10;26.13;;;;;;;9.95;100.00;99597.88;6273611;22;20067;-84
2024/03/03 10:00:19;;;;;;;41.05;26.08;;;;;;;10.17;100.00;99586.88;6248339;22;20511;-85
2024/03/03 10:02:48;;;;;;;43.05;23.60;;;;;;;10.21;100.00;99597.25;6225104;22;20441;-85
2024/03/03 10:05:16;;;;;;;44.42;27.48;;;;;;;10.39;100.00;99584.63;6248093;22;20115;-85
2024/03/03 10:07:53;;;;;;;40.45;24.83;;;;;;;10.49;100.00;99586.13;6223861;22;20023;-84
2024/03/03 10:10:30;;;;;;;44.58;25.45;;;;;;;10.64;100.00;99584.88;6272106;22;20069;-84
2024/03/03 10:12:59;;;;;;;44.00;25.88;;;;;;;10.49;100.00;99583.50;6248284;22;20532;-84
2024/03/03 10:15:26;;;;;;;44.15;26.40;;;;;;;10.51;100.00;99584.31;6249223;22;20015;-85
2024/03/03 10:17:53;;;;;;;42.63;24.70;;;;;;;10.41;100.00;99583.69;6244364;22;20016;-83
2024/03/03 10:20:22;;;;;;;46.22;27.45;;;;;;;10.49;100.00;99582.66;6241898;22;20031;-84
2024/03/03 10:22:49;;;;;;;42.67;24.95;;;;;;;10.79;100.00;99582.75;6247040;22;20026;-87
2024/03/03 10:25:18;;;;;;;39.95;25.92;;;;;;;10.61;100.00;99578.84;6220527;22;20062;-84
2024/03/03 10:27:47;;;;;;;44.30;25.67;;;;;;;10.73;100.00;99581.16;6246644;22;20020;-87
2024/03/03 10:30:18;;;;;;;47.35;26.08;;;;;;;10.86;100.00;99584.28;6222312;22;20020;-83
2024/03/03 10:32:49;;;;;;;45.22;28.17;;;;;;;11.12;99.32;99586.19;6250888;22;20031;-84
2024/03/03 10:35:18;;;;;;;42.83;27.00;;;;;;;11.47;96.28;99584.31;6248906;22;20059;-85
2024/03/03 10:38:03;;;;;;;40.22;25.98;;;;;;;11.65;92.35;99577.63;6253564;22;20020;-84
2024/03/03 10:40:29;;;;;;;52.15;27.27;;;;;;;12.16;91.22;99572.59;6253965;22;20019;-84
2024/03/03 10:42:56;;;;;;;40.92;24.88;;;;;;;12.49;87.91;99586.34;6249672;22;20082;-87
2024/03/03 10:45:23;;;;;;;39.85;26.25;;;;;;;12.34;84.27;99582.47;6225862;22;20081;-84
2024/03/03 10:47:50;;;;;;;39.88;25.52;;;;;;;13.10;82.14;99582.44;6249189;22;20357;-86
2024/03/03 10:50:21;;;;;;;41.63;25.95;;;;;;;13.24;78.03;99587.22;6223895;22;20019;-86
2024/03/03 10:52:50;;;;;;;42.33;28.25;;;;;;;12.75;79.38;99587.22;6224552;22;20035;-85
2024/03/03 10:55:17;;;;;;;40.70;26.13;;;;;;;12.26;82.67;99583.66;6249716;22;20030;-85
2024/03/03 10:57:45;;;;;;;42.03;26.35;;;;;;;12.27;83.32;99577.47;6251938;22;20081;-85
2024/03/03 11:00:22;;;;;;;44.33;27.92;;;;;;;11.93;84.34;99584.66;6225297;22;20019;-85
2024/03/03 11:02:51;;;;;;;42.92;27.02;;;;;;;11.98;85.02;99579.28;6228789;22;20792;-85
2024/03/03 11:05:19;;;;;;;45.83;26.23;;;;;;;12.54;84.23;99588.81;6256664;22;20329;-86
2024/03/03 11:07:47;;;;;;;40.35;26.92;;;;;;;13.84;77.54;99581.47;6227396;22;20023;-85
2024/03/03 11:10:15;;;;;;;34.22;24.98;;;;;;;15.34;72.16;99585.66;6225147;22;20007;-86
2024/03/03 11:12:44;;;;;;;39.33;26.33;;;;;;;16.43;64.66;99584.03;6226633;22;20023;-88
2024/03/03 11:15:13;;;;;;;36.92;25.63;;;;;;;16.85;61.79;99585.41;6250747;22;20065;-83
2024/03/03 11:17:46;;;;;;;33.25;23.67;;;;;;;17.73;59.30;99577.22;6224548;22;20023;-86
2024/03/03 11:20:23;;;;;;;35.80;24.23;;;;;;;18.49;56.93;99579.91;6223965;22;20043;-86
2024/03/03 11:23:02;;;;;;;36.15;26.73;;;;;;;18.02;56.79;99581.75;6252341;22;20024;-85